sensor_id;sensor_type;location;lat;lon;timestamp;P1;durP1;ratioP1;P2;durP2;ratioP2
7503;SDS011;3793;48.136;11.536;2023-06-22T00:02:16;6.60;;;3.75;;
7503;SDS011;3793;48.136;11.536;2023-06-22T00:04:43;7.78;;;3.67;;
7503;SDS011;3793;48.136;11.536;2023-06-22T00:07:10;8.45;;;4.20;;
7503;SDS011;3793;48.136;11.536;2023-06-22T00:09:37;7.18;;;3.92;;
7503;SDS011;3793;48.136;11.536;2023-06-22T00:12:06;8.43;;;4.10;;
7503;SDS011;3793;48.136;11.536;2023-06-22T00:14:33;8.27;;;4.13;;
7503;SDS011;3793;48.136;11.536;2023-06-22T00:17:00;7.93;;;4.07;;
7503;SDS011;3793;48.136;11.536;2023-06-22T00:19:26;14.50;;;4.22;;
7503;SDS011;3793;48.136;11.536;2023-06-22T00:21:53;11.07;;;4.40;;
7503;SDS011;3793;48.136;11.536;2023-06-22T00:24:20;6.88;;;4.13;;
7503;SDS011;3793;48.136;11.536;2023-06-22T00:26:47;6.53;;;3.78;;
7503;SDS011;3793;48.136;11.536;2023-06-22T00:29:16;6.20;;;3.83;;
7503;SDS011;3793;48.136;11.536;2023-06-22T00:31:43;9.77;;;3.90;;
7503;SDS011;3793;48.136;11.536;2023-06-22T00:34:10;6.78;;;4.18;;
7503;SDS011;3793;48.136;11.536;2023-06-22T00:36:37;7.28;;;3.95;;
7503;SDS011;3793;48.136;11.536;2023-06-22T00:39:05;6.88;;;3.65;;
7503;SDS011;3793;48.136;11.536;2023-06-22T00:41:33;9.05;;;4.30;;
7503;SDS011;3793;48.136;11.536;2023-06-22T00:43:59;5.45;;;4.10;;
7503;SDS011;3793;48.136;11.536;2023-06-22T00:46:28;6.80;;;4.65;;
7503;SDS011;3793;48.136;11.536;2023-06-22T00:48:54;9.48;;;4.30;;
7503;SDS011;3793;48.136;11.536;2023-06-22T00:51:22;8.85;;;4.53;;
7503;SDS011;3793;48.136;11.536;2023-06-22T00:53:49;7.85;;;3.92;;
7503;SDS011;3793;48.136;11.536;2023-06-22T00:56:16;8.20;;;3.75;;
7503;SDS011;3793;48.136;11.536;2023-06-22T00:58:44;5.97;;;3.58;;
7503;SDS011;3793;48.136;11.536;2023-06-22T01:01:12;8.63;;;4.35;;
7503;SDS011;3793;48.136;11.536;2023-06-22T01:03:40;8.68;;;3.72;;
7503;SDS011;3793;48.136;11.536;2023-06-22T01:06:08;8.25;;;4.28;;
7503;SDS011;3793;48.136;11.536;2023-06-22T01:08:38;8.40;;;3.95;;
7503;SDS011;3793;48.136;11.536;2023-06-22T01:11:10;9.52;;;4.18;;
7503;SDS011;3793;48.136;11.536;2023-06-22T01:13:40;11.05;;;4.75;;
7503;SDS011;3793;48.136;11.536;2023-06-22T01:16:10;7.97;;;3.97;;
7503;SDS011;3793;48.136;11.536;2023-06-22T01:18:42;6.85;;;4.13;;
7503;SDS011;3793;48.136;11.536;2023-06-22T01:21:11;7.15;;;4.00;;
7503;SDS011;3793;48.136;11.536;2023-06-22T01:23:46;7.82;;;4.15;;
7503;SDS011;3793;48.136;11.536;2023-06-22T01:26:19;6.15;;;3.80;;
7503;SDS011;3793;48.136;11.536;2023-06-22T01:28:50;8.00;;;4.25;;
7503;SDS011;3793;48.136;11.536;2023-06-22T01:31:20;12.50;;;4.65;;
7503;SDS011;3793;48.136;11.536;2023-06-22T01:33:50;8.38;;;4.63;;
7503;SDS011;3793;48.136;11.536;2023-06-22T01:36:18;6.68;;;3.83;;
7503;SDS011;3793;48.136;11.536;2023-06-22T01:38:45;7.20;;;4.13;;
7503;SDS011;3793;48.136;11.536;2023-06-22T01:41:13;7.53;;;4.07;;
7503;SDS011;3793;48.136;11.536;2023-06-22T01:43:41;7.63;;;4.10;;
7503;SDS011;3793;48.136;11.536;2023-06-22T01:46:09;7.47;;;4.40;;
7503;SDS011;3793;48.136;11.536;2023-06-22T01:48:37;7.75;;;4.00;;
7503;SDS011;3793;48.136;11.536;2023-06-22T01:51:05;9.40;;;4.10;;
7503;SDS011;3793;48.136;11.536;2023-06-22T01:53:31;11.35;;;4.63;;
7503;SDS011;3793;48.136;11.536;2023-06-22T01:55:58;5.07;;;3.70;;
7503;SDS011;3793;48.136;11.536;2023-06-22T01:58:27;12.05;;;4.47;;
7503;SDS011;3793;48.136;11.536;2023-06-22T02:00:56;8.07;;;4.07;;
7503;SDS011;3793;48.136;11.536;2023-06-22T02:03:29;6.60;;;4.25;;
7503;SDS011;3793;48.136;11.536;2023-06-22T02:06:04;8.32;;;4.43;;
7503;SDS011;3793;48.136;11.536;2023-06-22T02:08:35;9.27;;;4.13;;
7503;SDS011;3793;48.136;11.536;2023-06-22T02:11:06;9.02;;;4.82;;
7503;SDS011;3793;48.136;11.536;2023-06-22T02:13:33;8.93;;;4.97;;
7503;SDS011;3793;48.136;11.536;2023-06-22T02:16:01;8.20;;;4.25;;
7503;SDS011;3793;48.136;11.536;2023-06-22T02:18:29;9.82;;;4.43;;
7503;SDS011;3793;48.136;11.536;2023-06-22T02:20:56;6.07;;;4.53;;
7503;SDS011;3793;48.136;11.536;2023-06-22T02:23:24;9.95;;;5.07;;
7503;SDS011;3793;48.136;11.536;2023-06-22T02:25:51;8.57;;;5.03;;
7503;SDS011;3793;48.136;11.536;2023-06-22T02:28:17;9.15;;;4.47;;
7503;SDS011;3793;48.136;11.536;2023-06-22T02:30:44;6.50;;;4.50;;
7503;SDS011;3793;48.136;11.536;2023-06-22T02:33:11;9.35;;;4.78;;
7503;SDS011;3793;48.136;11.536;2023-06-22T02:35:39;7.28;;;5.13;;
7503;SDS011;3793;48.136;11.536;2023-06-22T02:38:10;7.63;;;4.38;;
7503;SDS011;3793;48.136;11.536;2023-06-22T02:40:37;8.82;;;4.72;;
7503;SDS011;3793;48.136;11.536;2023-06-22T02:43:04;9.27;;;4.97;;
7503;SDS011;3793;48.136;11.536;2023-06-22T02:45:30;10.23;;;4.50;;
7503;SDS011;3793;48.136;11.536;2023-06-22T02:47:57;8.07;;;5.18;;
7503;SDS011;3793;48.136;11.536;2023-06-22T02:50:24;10.23;;;4.63;;
7503;SDS011;3793;48.136;11.536;2023-06-22T02:52:52;8.20;;;4.32;;
7503;SDS011;3793;48.136;11.536;2023-06-22T02:55:19;7.30;;;4.85;;
7503;SDS011;3793;48.136;11.536;2023-06-22T02:57:46;9.73;;;4.50;;
7503;SDS011;3793;48.136;11.536;2023-06-22T03:00:17;6.43;;;4.38;;
7503;SDS011;3793;48.136;11.536;2023-06-22T03:02:47;10.05;;;5.38;;
7503;SDS011;3793;48.136;11.536;2023-06-22T03:05:14;7.75;;;5.20;;
7503;SDS011;3793;48.136;11.536;2023-06-22T03:07:43;7.78;;;5.00;;
7503;SDS011;3793;48.136;11.536;2023-06-22T03:10:12;9.15;;;5.05;;
7503;SDS011;3793;48.136;11.536;2023-06-22T03:12:40;6.07;;;4.28;;
7503;SDS011;3793;48.136;11.536;2023-06-22T03:15:08;8.77;;;4.70;;
7503;SDS011;3793;48.136;11.536;2023-06-22T03:17:36;7.65;;;4.07;;
7503;SDS011;3793;48.136;11.536;2023-06-22T03:20:04;8.30;;;4.70;;
7503;SDS011;3793;48.136;11.536;2023-06-22T03:22:34;9.57;;;4.85;;
7503;SDS011;3793;48.136;11.536;2023-06-22T03:25:01;12.75;;;5.90;;
7503;SDS011;3793;48.136;11.536;2023-06-22T03:27:29;8.40;;;4.95;;
7503;SDS011;3793;48.136;11.536;2023-06-22T03:29:56;9.77;;;6.18;;
7503;SDS011;3793;48.136;11.536;2023-06-22T03:32:23;9.82;;;5.78;;
7503;SDS011;3793;48.136;11.536;2023-06-22T03:34:53;9.57;;;5.78;;
7503;SDS011;3793;48.136;11.536;2023-06-22T03:37:19;8.38;;;5.30;;
7503;SDS011;3793;48.136;11.536;2023-06-22T03:39:46;9.00;;;5.30;;
7503;SDS011;3793;48.136;11.536;2023-06-22T03:42:13;12.23;;;6.07;;
7503;SDS011;3793;48.136;11.536;2023-06-22T03:44:41;6.72;;;5.25;;
7503;SDS011;3793;48.136;11.536;2023-06-22T03:47:08;8.73;;;5.30;;
7503;SDS011;3793;48.136;11.536;2023-06-22T03:49:34;7.72;;;5.18;;
7503;SDS011;3793;48.136;11.536;2023-06-22T03:52:01;8.80;;;5.55;;
7503;SDS011;3793;48.136;11.536;2023-06-22T03:54:29;8.68;;;5.05;;
7503;SDS011;3793;48.136;11.536;2023-06-22T03:56:56;7.57;;;4.85;;
7503;SDS011;3793;48.136;11.536;2023-06-22T03:59:24;7.32;;;5.55;;
7503;SDS011;3793;48.136;11.536;2023-06-22T04:01:52;8.85;;;5.40;;
7503;SDS011;3793;48.136;11.536;2023-06-22T04:04:19;6.30;;;5.00;;
7503;SDS011;3793;48.136;11.536;2023-06-22T04:06:46;7.93;;;4.85;;
7503;SDS011;3793;48.136;11.536;2023-06-22T04:09:13;8.73;;;5.32;;
7503;SDS011;3793;48.136;11.536;2023-06-22T04:11:40;12.48;;;5.03;;
7503;SDS011;3793;48.136;11.536;2023-06-22T04:14:06;10.50;;;4.68;;
7503;SDS011;3793;48.136;11.536;2023-06-22T04:16:33;9.30;;;5.15;;
7503;SDS011;3793;48.136;11.536;2023-06-22T04:19:01;10.65;;;5.70;;
7503;SDS011;3793;48.136;11.536;2023-06-22T04:21:28;12.93;;;5.20;;
7503;SDS011;3793;48.136;11.536;2023-06-22T04:23:55;8.30;;;5.68;;
7503;SDS011;3793;48.136;11.536;2023-06-22T04:26:22;9.30;;;5.65;;
7503;SDS011;3793;48.136;11.536;2023-06-22T04:28:49;7.30;;;5.72;;
7503;SDS011;3793;48.136;11.536;2023-06-22T04:31:20;13.63;;;6.30;;
7503;SDS011;3793;48.136;11.536;2023-06-22T04:33:57;10.63;;;5.30;;
7503;SDS011;3793;48.136;11.536;2023-06-22T04:36:31;11.70;;;5.43;;
7503;SDS011;3793;48.136;11.536;2023-06-22T04:39:02;12.30;;;5.45;;
7503;SDS011;3793;48.136;11.536;2023-06-22T04:41:30;8.05;;;6.00;;
7503;SDS011;3793;48.136;11.536;2023-06-22T04:44:07;10.30;;;6.07;;
7503;SDS011;3793;48.136;11.536;2023-06-22T04:46:35;14.23;;;6.78;;
7503;SDS011;3793;48.136;11.536;2023-06-22T04:49:04;14.63;;;6.85;;
7503;SDS011;3793;48.136;11.536;2023-06-22T04:51:36;10.65;;;5.82;;
7503;SDS011;3793;48.136;11.536;2023-06-22T04:54:04;12.25;;;6.60;;
7503;SDS011;3793;48.136;11.536;2023-06-22T04:56:31;13.18;;;6.95;;
7503;SDS011;3793;48.136;11.536;2023-06-22T04:58:58;12.10;;;6.15;;
7503;SDS011;3793;48.136;11.536;2023-06-22T05:01:25;16.20;;;7.05;;
7503;SDS011;3793;48.136;11.536;2023-06-22T05:03:52;10.80;;;5.90;;
7503;SDS011;3793;48.136;11.536;2023-06-22T05:06:20;10.10;;;6.38;;
7503;SDS011;3793;48.136;11.536;2023-06-22T05:08:52;11.25;;;6.28;;
7503;SDS011;3793;48.136;11.536;2023-06-22T05:11:22;17.80;;;6.55;;
7503;SDS011;3793;48.136;11.536;2023-06-22T05:13:49;11.45;;;6.13;;
7503;SDS011;3793;48.136;11.536;2023-06-22T05:16:16;10.40;;;6.32;;
7503;SDS011;3793;48.136;11.536;2023-06-22T05:18:43;11.13;;;6.70;;
7503;SDS011;3793;48.136;11.536;2023-06-22T05:21:09;11.68;;;6.03;;
7503;SDS011;3793;48.136;11.536;2023-06-22T05:23:36;12.80;;;6.43;;
7503;SDS011;3793;48.136;11.536;2023-06-22T05:26:04;10.35;;;5.90;;
7503;SDS011;3793;48.136;11.536;2023-06-22T05:28:34;10.98;;;6.22;;
7503;SDS011;3793;48.136;11.536;2023-06-22T05:31:01;10.10;;;6.63;;
7503;SDS011;3793;48.136;11.536;2023-06-22T05:33:29;11.60;;;7.05;;
7503;SDS011;3793;48.136;11.536;2023-06-22T05:35:58;12.52;;;6.82;;
7503;SDS011;3793;48.136;11.536;2023-06-22T05:38:25;11.05;;;6.63;;
7503;SDS011;3793;48.136;11.536;2023-06-22T05:40:51;13.73;;;6.68;;
7503;SDS011;3793;48.136;11.536;2023-06-22T05:43:20;15.25;;;8.07;;
7503;SDS011;3793;48.136;11.536;2023-06-22T05:45:47;16.80;;;6.55;;
7503;SDS011;3793;48.136;11.536;2023-06-22T05:48:13;12.25;;;6.57;;
7503;SDS011;3793;48.136;11.536;2023-06-22T05:50:40;10.95;;;7.53;;
7503;SDS011;3793;48.136;11.536;2023-06-22T05:53:08;14.90;;;6.88;;
7503;SDS011;3793;48.136;11.536;2023-06-22T05:55:35;9.70;;;6.47;;
7503;SDS011;3793;48.136;11.536;2023-06-22T05:58:02;14.40;;;6.78;;
7503;SDS011;3793;48.136;11.536;2023-06-22T06:00:31;11.48;;;7.45;;
7503;SDS011;3793;48.136;11.536;2023-06-22T06:02:58;13.10;;;7.07;;
7503;SDS011;3793;48.136;11.536;2023-06-22T06:05:28;18.15;;;7.05;;
7503;SDS011;3793;48.136;11.536;2023-06-22T06:07:55;12.90;;;8.02;;
7503;SDS011;3793;48.136;11.536;2023-06-22T06:10:22;11.43;;;6.63;;
7503;SDS011;3793;48.136;11.536;2023-06-22T06:12:49;14.63;;;7.32;;
7503;SDS011;3793;48.136;11.536;2023-06-22T06:15:16;11.43;;;7.28;;
7503;SDS011;3793;48.136;11.536;2023-06-22T06:17:47;12.00;;;7.28;;
7503;SDS011;3793;48.136;11.536;2023-06-22T06:20:15;15.85;;;7.00;;
7503;SDS011;3793;48.136;11.536;2023-06-22T06:22:42;14.73;;;6.57;;
7503;SDS011;3793;48.136;11.536;2023-06-22T06:25:09;10.73;;;6.32;;
7503;SDS011;3793;48.136;11.536;2023-06-22T06:27:41;11.27;;;7.03;;
7503;SDS011;3793;48.136;11.536;2023-06-22T06:30:08;18.25;;;6.53;;
7503;SDS011;3793;48.136;11.536;2023-06-22T06:32:36;9.98;;;6.93;;
7503;SDS011;3793;48.136;11.536;2023-06-22T06:35:04;12.82;;;7.03;;
7503;SDS011;3793;48.136;11.536;2023-06-22T06:37:33;12.00;;;6.80;;
7503;SDS011;3793;48.136;11.536;2023-06-22T06:40:01;11.85;;;6.93;;
7503;SDS011;3793;48.136;11.536;2023-06-22T06:42:30;11.65;;;6.88;;
7503;SDS011;3793;48.136;11.536;2023-06-22T06:44:57;11.75;;;7.05;;
7503;SDS011;3793;48.136;11.536;2023-06-22T06:47:23;11.40;;;7.03;;
7503;SDS011;3793;48.136;11.536;2023-06-22T06:49:50;13.80;;;6.68;;
7503;SDS011;3793;48.136;11.536;2023-06-22T06:52:18;14.73;;;7.20;;
7503;SDS011;3793;48.136;11.536;2023-06-22T06:54:46;14.43;;;7.05;;
7503;SDS011;3793;48.136;11.536;2023-06-22T06:57:13;10.32;;;7.07;;
7503;SDS011;3793;48.136;11.536;2023-06-22T06:59:40;12.20;;;7.00;;
7503;SDS011;3793;48.136;11.536;2023-06-22T07:02:07;13.52;;;7.50;;
7503;SDS011;3793;48.136;11.536;2023-06-22T07:04:34;11.57;;;6.82;;
7503;SDS011;3793;48.136;11.536;2023-06-22T07:07:01;10.13;;;6.65;;
7503;SDS011;3793;48.136;11.536;2023-06-22T07:09:30;12.63;;;6.55;;
7503;SDS011;3793;48.136;11.536;2023-06-22T07:11:56;12.13;;;6.80;;
7503;SDS011;3793;48.136;11.536;2023-06-22T07:14:23;14.38;;;7.07;;
7503;SDS011;3793;48.136;11.536;2023-06-22T07:16:50;16.42;;;7.35;;
7503;SDS011;3793;48.136;11.536;2023-06-22T07:19:17;14.38;;;7.43;;
7503;SDS011;3793;48.136;11.536;2023-06-22T07:21:50;12.98;;;6.60;;
7503;SDS011;3793;48.136;11.536;2023-06-22T07:24:18;11.73;;;6.40;;
7503;SDS011;3793;48.136;11.536;2023-06-22T07:26:47;9.40;;;6.25;;
7503;SDS011;3793;48.136;11.536;2023-06-22T07:29:15;11.27;;;6.32;;
7503;SDS011;3793;48.136;11.536;2023-06-22T07:31:42;11.02;;;6.65;;
7503;SDS011;3793;48.136;11.536;2023-06-22T07:34:08;11.38;;;6.90;;
7503;SDS011;3793;48.136;11.536;2023-06-22T07:36:35;15.55;;;6.85;;
7503;SDS011;3793;48.136;11.536;2023-06-22T07:39:02;11.75;;;7.07;;
7503;SDS011;3793;48.136;11.536;2023-06-22T07:41:29;11.63;;;6.35;;
7503;SDS011;3793;48.136;11.536;2023-06-22T07:43:57;13.73;;;6.78;;
7503;SDS011;3793;48.136;11.536;2023-06-22T07:46:24;13.98;;;7.10;;
7503;SDS011;3793;48.136;11.536;2023-06-22T07:48:51;13.52;;;7.03;;
7503;SDS011;3793;48.136;11.536;2023-06-22T07:51:18;13.07;;;6.93;;
7503;SDS011;3793;48.136;11.536;2023-06-22T07:53:45;11.02;;;6.25;;
7503;SDS011;3793;48.136;11.536;2023-06-22T07:56:12;16.88;;;7.70;;
7503;SDS011;3793;48.136;11.536;2023-06-22T07:58:38;15.27;;;6.88;;
7503;SDS011;3793;48.136;11.536;2023-06-22T08:01:07;18.15;;;7.82;;
7503;SDS011;3793;48.136;11.536;2023-06-22T08:03:34;13.45;;;6.82;;
7503;SDS011;3793;48.136;11.536;2023-06-22T08:06:01;15.07;;;6.68;;
7503;SDS011;3793;48.136;11.536;2023-06-22T08:08:28;13.20;;;6.28;;
7503;SDS011;3793;48.136;11.536;2023-06-22T08:10:55;14.65;;;6.68;;
7503;SDS011;3793;48.136;11.536;2023-06-22T08:13:22;12.00;;;5.75;;
7503;SDS011;3793;48.136;11.536;2023-06-22T08:15:49;12.98;;;6.82;;
7503;SDS011;3793;48.136;11.536;2023-06-22T08:18:17;21.02;;;6.45;;
7503;SDS011;3793;48.136;11.536;2023-06-22T08:20:44;14.35;;;6.63;;
7503;SDS011;3793;48.136;11.536;2023-06-22T08:23:11;14.15;;;7.00;;
7503;SDS011;3793;48.136;11.536;2023-06-22T08:25:38;14.57;;;6.70;;
7503;SDS011;3793;48.136;11.536;2023-06-22T08:28:05;11.27;;;6.55;;
7503;SDS011;3793;48.136;11.536;2023-06-22T08:30:32;12.95;;;6.97;;
7503;SDS011;3793;48.136;11.536;2023-06-22T08:32:59;14.35;;;6.53;;
7503;SDS011;3793;48.136;11.536;2023-06-22T08:35:27;16.95;;;6.82;;
7503;SDS011;3793;48.136;11.536;2023-06-22T08:37:55;19.58;;;7.10;;
7503;SDS011;3793;48.136;11.536;2023-06-22T08:40:23;16.65;;;6.63;;
7503;SDS011;3793;48.136;11.536;2023-06-22T08:42:50;14.02;;;6.97;;
7503;SDS011;3793;48.136;11.536;2023-06-22T08:45:17;13.75;;;7.03;;
7503;SDS011;3793;48.136;11.536;2023-06-22T08:47:44;23.73;;;7.15;;
7503;SDS011;3793;48.136;11.536;2023-06-22T08:50:11;14.20;;;6.80;;
7503;SDS011;3793;48.136;11.536;2023-06-22T08:52:40;11.55;;;6.20;;
7503;SDS011;3793;48.136;11.536;2023-06-22T08:55:07;13.85;;;6.70;;
7503;SDS011;3793;48.136;11.536;2023-06-22T08:57:36;13.73;;;6.90;;
7503;SDS011;3793;48.136;11.536;2023-06-22T09:00:06;17.85;;;6.82;;
7503;SDS011;3793;48.136;11.536;2023-06-22T09:02:42;13.70;;;6.32;;
7503;SDS011;3793;48.136;11.536;2023-06-22T09:05:09;15.25;;;6.78;;
7503;SDS011;3793;48.136;11.536;2023-06-22T09:07:36;15.52;;;6.65;;
7503;SDS011;3793;48.136;11.536;2023-06-22T09:10:05;15.10;;;6.97;;
7503;SDS011;3793;48.136;11.536;2023-06-22T09:12:33;13.70;;;5.88;;
7503;SDS011;3793;48.136;11.536;2023-06-22T09:15:03;15.45;;;6.35;;
7503;SDS011;3793;48.136;11.536;2023-06-22T09:17:32;15.52;;;6.28;;
7503;SDS011;3793;48.136;11.536;2023-06-22T09:20:00;15.77;;;6.65;;
7503;SDS011;3793;48.136;11.536;2023-06-22T09:22:30;14.20;;;7.15;;
7503;SDS011;3793;48.136;11.536;2023-06-22T09:24:57;12.70;;;6.15;;
7503;SDS011;3793;48.136;11.536;2023-06-22T09:27:26;15.05;;;6.80;;
7503;SDS011;3793;48.136;11.536;2023-06-22T09:29:53;18.02;;;5.95;;
7503;SDS011;3793;48.136;11.536;2023-06-22T09:32:20;13.40;;;6.38;;
7503;SDS011;3793;48.136;11.536;2023-06-22T09:34:47;19.83;;;6.82;;
7503;SDS011;3793;48.136;11.536;2023-06-22T09:37:14;14.32;;;6.93;;
7503;SDS011;3793;48.136;11.536;2023-06-22T09:39:41;14.73;;;6.55;;
7503;SDS011;3793;48.136;11.536;2023-06-22T09:42:08;12.70;;;6.88;;
7503;SDS011;3793;48.136;11.536;2023-06-22T09:44:36;13.68;;;6.53;;
7503;SDS011;3793;48.136;11.536;2023-06-22T09:47:03;17.55;;;7.25;;
7503;SDS011;3793;48.136;11.536;2023-06-22T09:49:30;15.43;;;5.93;;
7503;SDS011;3793;48.136;11.536;2023-06-22T09:51:58;16.15;;;6.57;;
7503;SDS011;3793;48.136;11.536;2023-06-22T09:54:25;20.38;;;7.00;;
7503;SDS011;3793;48.136;11.536;2023-06-22T09:56:52;14.38;;;6.40;;
7503;SDS011;3793;48.136;11.536;2023-06-22T09:59:19;14.52;;;7.07;;
7503;SDS011;3793;48.136;11.536;2023-06-22T10:01:47;15.93;;;6.55;;
7503;SDS011;3793;48.136;11.536;2023-06-22T10:04:14;13.88;;;6.78;;
7503;SDS011;3793;48.136;11.536;2023-06-22T10:06:41;16.98;;;6.57;;
7503;SDS011;3793;48.136;11.536;2023-06-22T10:09:10;14.38;;;6.30;;
7503;SDS011;3793;48.136;11.536;2023-06-22T10:11:37;13.07;;;6.00;;
7503;SDS011;3793;48.136;11.536;2023-06-22T10:14:04;14.18;;;6.45;;
7503;SDS011;3793;48.136;11.536;2023-06-22T10:16:31;13.32;;;6.97;;
7503;SDS011;3793;48.136;11.536;2023-06-22T10:19:00;16.05;;;6.38;;
7503;SDS011;3793;48.136;11.536;2023-06-22T10:21:27;15.88;;;6.88;;
7503;SDS011;3793;48.136;11.536;2023-06-22T10:23:54;17.83;;;6.18;;
7503;SDS011;3793;48.136;11.536;2023-06-22T10:26:21;13.77;;;5.97;;
7503;SDS011;3793;48.136;11.536;2023-06-22T10:28:48;14.30;;;7.18;;
7503;SDS011;3793;48.136;11.536;2023-06-22T10:31:15;13.02;;;6.40;;
7503;SDS011;3793;48.136;11.536;2023-06-22T10:33:42;14.63;;;6.80;;
7503;SDS011;3793;48.136;11.536;2023-06-22T10:36:10;17.20;;;7.00;;
7503;SDS011;3793;48.136;11.536;2023-06-22T10:38:37;20.25;;;7.30;;
7503;SDS011;3793;48.136;11.536;2023-06-22T10:41:04;14.77;;;6.55;;
7503;SDS011;3793;48.136;11.536;2023-06-22T10:43:31;12.93;;;6.70;;
7503;SDS011;3793;48.136;11.536;2023-06-22T10:45:58;14.25;;;6.22;;
7503;SDS011;3793;48.136;11.536;2023-06-22T10:48:24;14.13;;;6.32;;
7503;SDS011;3793;48.136;11.536;2023-06-22T10:50:51;16.17;;;6.28;;
7503;SDS011;3793;48.136;11.536;2023-06-22T10:53:19;15.73;;;6.40;;
7503;SDS011;3793;48.136;11.536;2023-06-22T10:55:46;16.60;;;7.05;;
7503;SDS011;3793;48.136;11.536;2023-06-22T10:58:13;16.42;;;6.75;;
7503;SDS011;3793;48.136;11.536;2023-06-22T11:00:40;11.27;;;6.05;;
7503;SDS011;3793;48.136;11.536;2023-06-22T11:03:07;16.13;;;6.75;;
7503;SDS011;3793;48.136;11.536;2023-06-22T11:05:34;12.35;;;6.15;;
7503;SDS011;3793;48.136;11.536;2023-06-22T11:08:01;15.00;;;6.88;;
7503;SDS011;3793;48.136;11.536;2023-06-22T11:10:29;15.45;;;6.40;;
7503;SDS011;3793;48.136;11.536;2023-06-22T11:12:56;12.23;;;6.13;;
7503;SDS011;3793;48.136;11.536;2023-06-22T11:15:27;15.90;;;6.63;;
7503;SDS011;3793;48.136;11.536;2023-06-22T11:17:54;13.70;;;5.85;;
7503;SDS011;3793;48.136;11.536;2023-06-22T11:20:21;13.88;;;6.53;;
7503;SDS011;3793;48.136;11.536;2023-06-22T11:22:48;13.40;;;6.65;;
7503;SDS011;3793;48.136;11.536;2023-06-22T11:25:15;17.02;;;6.88;;
7503;SDS011;3793;48.136;11.536;2023-06-22T11:27:43;14.27;;;6.32;;
7503;SDS011;3793;48.136;11.536;2023-06-22T11:30:10;14.90;;;6.28;;
7503;SDS011;3793;48.136;11.536;2023-06-22T11:32:37;14.10;;;6.32;;
7503;SDS011;3793;48.136;11.536;2023-06-22T11:35:04;14.73;;;6.00;;
7503;SDS011;3793;48.136;11.536;2023-06-22T11:37:31;14.30;;;5.97;;
7503;SDS011;3793;48.136;11.536;2023-06-22T11:39:58;17.33;;;6.60;;
7503;SDS011;3793;48.136;11.536;2023-06-22T11:42:25;16.88;;;6.47;;
7503;SDS011;3793;48.136;11.536;2023-06-22T11:44:54;9.48;;;5.88;;
7503;SDS011;3793;48.136;11.536;2023-06-22T11:47:21;25.95;;;6.47;;
7503;SDS011;3793;48.136;11.536;2023-06-22T11:49:48;15.48;;;6.35;;
7503;SDS011;3793;48.136;11.536;2023-06-22T11:52:15;12.82;;;6.00;;
7503;SDS011;3793;48.136;11.536;2023-06-22T11:54:42;18.80;;;6.82;;
7503;SDS011;3793;48.136;11.536;2023-06-22T11:57:10;15.30;;;6.32;;
7503;SDS011;3793;48.136;11.536;2023-06-22T11:59:37;13.95;;;6.60;;
7503;SDS011;3793;48.136;11.536;2023-06-22T12:02:06;17.45;;;6.60;;
7503;SDS011;3793;48.136;11.536;2023-06-22T12:04:34;14.15;;;6.47;;
7503;SDS011;3793;48.136;11.536;2023-06-22T12:07:01;17.55;;;7.07;;
7503;SDS011;3793;48.136;11.536;2023-06-22T12:09:28;13.48;;;6.57;;
7503;SDS011;3793;48.136;11.536;2023-06-22T12:11:55;14.48;;;6.55;;
7503;SDS011;3793;48.136;11.536;2023-06-22T12:14:22;14.57;;;6.53;;
7503;SDS011;3793;48.136;11.536;2023-06-22T12:16:49;11.82;;;6.10;;
7503;SDS011;3793;48.136;11.536;2023-06-22T12:19:17;12.98;;;6.13;;
7503;SDS011;3793;48.136;11.536;2023-06-22T12:21:44;14.05;;;6.60;;
7503;SDS011;3793;48.136;11.536;2023-06-22T12:24:11;21.17;;;6.32;;
7503;SDS011;3793;48.136;11.536;2023-06-22T12:26:38;14.40;;;6.60;;
7503;SDS011;3793;48.136;11.536;2023-06-22T12:29:05;17.42;;;7.15;;
7503;SDS011;3793;48.136;11.536;2023-06-22T12:31:31;13.70;;;6.47;;
7503;SDS011;3793;48.136;11.536;2023-06-22T12:33:58;13.05;;;6.35;;
7503;SDS011;3793;48.136;11.536;2023-06-22T12:36:26;9.32;;;5.90;;
7503;SDS011;3793;48.136;11.536;2023-06-22T12:38:53;15.65;;;6.75;;
7503;SDS011;3793;48.136;11.536;2023-06-22T12:41:20;12.40;;;6.38;;
7503;SDS011;3793;48.136;11.536;2023-06-22T12:43:47;15.32;;;7.38;;
7503;SDS011;3793;48.136;11.536;2023-06-22T12:46:13;12.18;;;6.82;;
7503;SDS011;3793;48.136;11.536;2023-06-22T12:48:41;14.93;;;6.63;;
7503;SDS011;3793;48.136;11.536;2023-06-22T12:51:09;13.55;;;6.05;;
7503;SDS011;3793;48.136;11.536;2023-06-22T12:53:38;13.60;;;7.60;;
7503;SDS011;3793;48.136;11.536;2023-06-22T12:56:04;15.75;;;6.72;;
7503;SDS011;3793;48.136;11.536;2023-06-22T12:58:31;18.95;;;7.20;;
7503;SDS011;3793;48.136;11.536;2023-06-22T13:00:58;11.82;;;6.10;;
7503;SDS011;3793;48.136;11.536;2023-06-22T13:03:25;16.50;;;7.40;;
7503;SDS011;3793;48.136;11.536;2023-06-22T13:05:53;13.60;;;7.38;;
7503;SDS011;3793;48.136;11.536;2023-06-22T13:08:20;17.58;;;6.15;;
7503;SDS011;3793;48.136;11.536;2023-06-22T13:10:48;13.20;;;5.50;;
7503;SDS011;3793;48.136;11.536;2023-06-22T13:13:15;13.27;;;6.30;;
7503;SDS011;3793;48.136;11.536;2023-06-22T13:15:42;14.00;;;6.60;;
7503;SDS011;3793;48.136;11.536;2023-06-22T13:18:08;10.95;;;6.65;;
7503;SDS011;3793;48.136;11.536;2023-06-22T13:20:35;17.30;;;6.57;;
7503;SDS011;3793;48.136;11.536;2023-06-22T13:23:02;13.23;;;5.95;;
7503;SDS011;3793;48.136;11.536;2023-06-22T13:25:29;11.98;;;6.60;;
7503;SDS011;3793;48.136;11.536;2023-06-22T13:27:58;11.98;;;6.57;;
7503;SDS011;3793;48.136;11.536;2023-06-22T13:30:24;13.90;;;6.28;;
7503;SDS011;3793;48.136;11.536;2023-06-22T13:32:51;12.77;;;6.55;;
7503;SDS011;3793;48.136;11.536;2023-06-22T13:35:18;17.63;;;8.02;;
7503;SDS011;3793;48.136;11.536;2023-06-22T13:37:45;14.25;;;5.97;;
7503;SDS011;3793;48.136;11.536;2023-06-22T13:40:12;15.70;;;6.85;;
7503;SDS011;3793;48.136;11.536;2023-06-22T13:42:39;15.15;;;5.78;;
7503;SDS011;3793;48.136;11.536;2023-06-22T13:45:08;11.50;;;6.20;;
7503;SDS011;3793;48.136;11.536;2023-06-22T13:47:36;12.40;;;6.78;;
7503;SDS011;3793;48.136;11.536;2023-06-22T13:50:03;13.05;;;7.28;;
7503;SDS011;3793;48.136;11.536;2023-06-22T13:52:31;13.48;;;6.28;;
7503;SDS011;3793;48.136;11.536;2023-06-22T13:54:58;14.77;;;6.88;;
7503;SDS011;3793;48.136;11.536;2023-06-22T13:57:24;15.98;;;8.43;;
7503;SDS011;3793;48.136;11.536;2023-06-22T13:59:52;15.10;;;6.93;;
7503;SDS011;3793;48.136;11.536;2023-06-22T14:02:21;14.00;;;7.20;;
7503;SDS011;3793;48.136;11.536;2023-06-22T14:04:47;16.70;;;8.48;;
7503;SDS011;3793;48.136;11.536;2023-06-22T14:07:14;14.98;;;7.22;;
7503;SDS011;3793;48.136;11.536;2023-06-22T14:09:41;12.68;;;8.68;;
7503;SDS011;3793;48.136;11.536;2023-06-22T14:12:09;13.73;;;6.05;;
7503;SDS011;3793;48.136;11.536;2023-06-22T14:14:37;14.20;;;6.38;;
7503;SDS011;3793;48.136;11.536;2023-06-22T14:17:04;14.55;;;7.45;;
7503;SDS011;3793;48.136;11.536;2023-06-22T14:19:32;16.08;;;7.93;;
7503;SDS011;3793;48.136;11.536;2023-06-22T14:21:59;16.05;;;6.43;;
7503;SDS011;3793;48.136;11.536;2023-06-22T14:24:26;17.10;;;8.88;;
7503;SDS011;3793;48.136;11.536;2023-06-22T14:26:53;13.10;;;6.75;;
7503;SDS011;3793;48.136;11.536;2023-06-22T14:29:20;16.80;;;8.10;;
7503;SDS011;3793;48.136;11.536;2023-06-22T14:31:47;16.73;;;6.72;;
7503;SDS011;3793;48.136;11.536;2023-06-22T14:34:14;12.48;;;5.82;;
7503;SDS011;3793;48.136;11.536;2023-06-22T14:36:43;19.88;;;7.88;;
7503;SDS011;3793;48.136;11.536;2023-06-22T14:39:11;14.88;;;6.30;;
7503;SDS011;3793;48.136;11.536;2023-06-22T14:41:38;15.77;;;6.18;;
7503;SDS011;3793;48.136;11.536;2023-06-22T14:44:05;15.13;;;6.20;;
7503;SDS011;3793;48.136;11.536;2023-06-22T14:46:32;18.17;;;9.23;;
7503;SDS011;3793;48.136;11.536;2023-06-22T14:48:58;21.17;;;11.07;;
7503;SDS011;3793;48.136;11.536;2023-06-22T14:51:25;17.38;;;7.80;;
7503;SDS011;3793;48.136;11.536;2023-06-22T14:53:54;13.43;;;6.35;;